sensor_id;sensor_type;location;lat;lon;timestamp;P1;durP1;ratioP1;P2;durP2;ratioP2
71351;SDS011;59159;51.652;4.864;2023-03-01T00:02:17;6.40;;;2.15;;
71351;SDS011;59159;51.652;4.864;2023-03-01T00:04:43;5.97;;;1.92;;
71351;SDS011;59159;51.652;4.864;2023-03-01T00:07:09;6.03;;;2.00;;
71351;SDS011;59159;51.652;4.864;2023-03-01T00:09:36;6.05;;;2.08;;
71351;SDS011;59159;51.652;4.864;2023-03-01T00:12:02;6.10;;;2.20;;
71351;SDS011;59159;51.652;4.864;2023-03-01T00:14:29;6.60;;;2.13;;
71351;SDS011;59159;51.652;4.864;2023-03-01T00:16:55;5.45;;;2.05;;
71351;SDS011;59159;51.652;4.864;2023-03-01T00:19:22;5.68;;;2.15;;
71351;SDS011;59159;51.652;4.864;2023-03-01T00:21:48;5.82;;;1.73;;
71351;SDS011;59159;51.652;4.864;2023-03-01T00:24:14;5.40;;;2.00;;
71351;SDS011;59159;51.652;4.864;2023-03-01T00:26:40;6.32;;;2.08;;
71351;SDS011;59159;51.652;4.864;2023-03-01T00:29:06;6.22;;;2.20;;
71351;SDS011;59159;51.652;4.864;2023-03-01T00:31:32;6.67;;;2.00;;
71351;SDS011;59159;51.652;4.864;2023-03-01T00:34:00;6.00;;;1.83;;
71351;SDS011;59159;51.652;4.864;2023-03-01T00:36:27;5.38;;;2.00;;
71351;SDS011;59159;51.652;4.864;2023-03-01T00:38:54;6.17;;;2.00;;
71351;SDS011;59159;51.652;4.864;2023-03-01T00:41:20;5.60;;;1.70;;
71351;SDS011;59159;51.652;4.864;2023-03-01T00:43:51;5.03;;;1.90;;
71351;SDS011;59159;51.652;4.864;2023-03-01T00:46:19;5.78;;;1.90;;
71351;SDS011;59159;51.652;4.864;2023-03-01T00:48:45;6.63;;;1.67;;
71351;SDS011;59159;51.652;4.864;2023-03-01T00:51:15;5.45;;;2.00;;
71351;SDS011;59159;51.652;4.864;2023-03-01T00:53:42;5.03;;;1.70;;
71351;SDS011;59159;51.652;4.864;2023-03-01T00:56:08;5.00;;;2.00;;
71351;SDS011;59159;51.652;4.864;2023-03-01T00:58:35;6.43;;;2.03;;
71351;SDS011;59159;51.652;4.864;2023-03-01T01:01:06;5.13;;;1.85;;
71351;SDS011;59159;51.652;4.864;2023-03-01T01:03:32;5.67;;;1.80;;
71351;SDS011;59159;51.652;4.864;2023-03-01T01:05:58;5.32;;;2.13;;
71351;SDS011;59159;51.652;4.864;2023-03-01T01:08:29;5.75;;;1.90;;
71351;SDS011;59159;51.652;4.864;2023-03-01T01:10:55;5.57;;;2.40;;
71351;SDS011;59159;51.652;4.864;2023-03-01T01:13:21;5.73;;;2.00;;
71351;SDS011;59159;51.652;4.864;2023-03-01T01:15:47;5.38;;;1.80;;
71351;SDS011;59159;51.652;4.864;2023-03-01T01:18:13;5.57;;;2.00;;
71351;SDS011;59159;51.652;4.864;2023-03-01T01:20:39;5.20;;;1.90;;
71351;SDS011;59159;51.652;4.864;2023-03-01T01:23:05;5.22;;;1.80;;
71351;SDS011;59159;51.652;4.864;2023-03-01T01:25:34;5.78;;;2.05;;
71351;SDS011;59159;51.652;4.864;2023-03-01T01:28:00;4.67;;;1.93;;
71351;SDS011;59159;51.652;4.864;2023-03-01T01:30:26;5.63;;;1.75;;
71351;SDS011;59159;51.652;4.864;2023-03-01T01:32:52;5.75;;;2.28;;
71351;SDS011;59159;51.652;4.864;2023-03-01T01:35:18;5.63;;;1.95;;
71351;SDS011;59159;51.652;4.864;2023-03-01T01:37:44;5.00;;;1.77;;
71351;SDS011;59159;51.652;4.864;2023-03-01T01:40:10;5.32;;;1.90;;
71351;SDS011;59159;51.652;4.864;2023-03-01T01:42:36;4.70;;;1.52;;
71351;SDS011;59159;51.652;4.864;2023-03-01T01:47:46;5.32;;;1.60;;
71351;SDS011;59159;51.652;4.864;2023-03-01T01:50:14;5.90;;;1.83;;
71351;SDS011;59159;51.652;4.864;2023-03-01T01:52:41;6.23;;;2.00;;
71351;SDS011;59159;51.652;4.864;2023-03-01T01:55:11;5.18;;;1.67;;
71351;SDS011;59159;51.652;4.864;2023-03-01T01:57:47;6.00;;;2.00;;
71351;SDS011;59159;51.652;4.864;2023-03-01T02:00:20;5.63;;;1.80;;
71351;SDS011;59159;51.652;4.864;2023-03-01T02:02:47;5.77;;;2.40;;
71351;SDS011;59159;51.652;4.864;2023-03-01T02:07:58;6.55;;;2.20;;
71351;SDS011;59159;51.652;4.864;2023-03-01T02:10:24;5.83;;;2.00;;
71351;SDS011;59159;51.652;4.864;2023-03-01T02:12:51;6.10;;;2.00;;
71351;SDS011;59159;51.652;4.864;2023-03-01T02:15:17;5.07;;;1.80;;
71351;SDS011;59159;51.652;4.864;2023-03-01T02:17:43;5.63;;;1.90;;
71351;SDS011;59159;51.652;4.864;2023-03-01T02:23:11;5.85;;;2.00;;
71351;SDS011;59159;51.652;4.864;2023-03-01T02:25:40;5.18;;;1.75;;
71351;SDS011;59159;51.652;4.864;2023-03-01T02:28:17;4.80;;;1.70;;
71351;SDS011;59159;51.652;4.864;2023-03-01T02:30:48;7.38;;;2.25;;
71351;SDS011;59159;51.652;4.864;2023-03-01T02:33:34;4.75;;;1.63;;
71351;SDS011;59159;51.652;4.864;2023-03-01T02:36:01;7.23;;;1.90;;
71351;SDS011;59159;51.652;4.864;2023-03-01T02:38:28;5.82;;;1.95;;
71351;SDS011;59159;51.652;4.864;2023-03-01T02:40:55;5.63;;;2.00;;
71351;SDS011;59159;51.652;4.864;2023-03-01T02:43:22;5.27;;;1.67;;
71351;SDS011;59159;51.652;4.864;2023-03-01T02:45:50;5.53;;;1.70;;
71351;SDS011;59159;51.652;4.864;2023-03-01T02:48:17;4.97;;;1.90;;
71351;SDS011;59159;51.652;4.864;2023-03-01T02:51:04;5.75;;;1.98;;
71351;SDS011;59159;51.652;4.864;2023-03-01T02:53:34;6.00;;;1.70;;
71351;SDS011;59159;51.652;4.864;2023-03-01T02:56:03;5.18;;;1.88;;
71351;SDS011;59159;51.652;4.864;2023-03-01T02:58:29;5.55;;;1.73;;
71351;SDS011;59159;51.652;4.864;2023-03-01T03:00:55;4.97;;;1.77;;
71351;SDS011;59159;51.652;4.864;2023-03-01T03:03:22;4.90;;;1.60;;
71351;SDS011;59159;51.652;4.864;2023-03-01T03:05:48;5.20;;;1.98;;
71351;SDS011;59159;51.652;4.864;2023-03-01T03:08:14;4.83;;;1.83;;
71351;SDS011;59159;51.652;4.864;2023-03-01T03:10:48;5.43;;;1.88;;
71351;SDS011;59159;51.652;4.864;2023-03-01T03:13:15;6.40;;;2.00;;
71351;SDS011;59159;51.652;4.864;2023-03-01T03:15:42;5.05;;;1.60;;
71351;SDS011;59159;51.652;4.864;2023-03-01T03:18:10;5.93;;;1.90;;
71351;SDS011;59159;51.652;4.864;2023-03-01T03:20:36;5.80;;;1.92;;
71351;SDS011;59159;51.652;4.864;2023-03-01T03:23:03;5.55;;;2.00;;
71351;SDS011;59159;51.652;4.864;2023-03-01T03:25:29;5.50;;;1.80;;
71351;SDS011;59159;51.652;4.864;2023-03-01T03:27:55;4.63;;;1.70;;
71351;SDS011;59159;51.652;4.864;2023-03-01T03:30:28;5.40;;;1.67;;
71351;SDS011;59159;51.652;4.864;2023-03-01T03:32:54;4.90;;;1.50;;
71351;SDS011;59159;51.652;4.864;2023-03-01T03:35:25;5.22;;;1.50;;
71351;SDS011;59159;51.652;4.864;2023-03-01T03:37:51;5.68;;;1.80;;
71351;SDS011;59159;51.652;4.864;2023-03-01T03:40:26;4.53;;;1.58;;
71351;SDS011;59159;51.652;4.864;2023-03-01T03:42:52;5.40;;;1.63;;
71351;SDS011;59159;51.652;4.864;2023-03-01T03:45:18;4.60;;;1.55;;
71351;SDS011;59159;51.652;4.864;2023-03-01T03:47:44;4.72;;;1.60;;
71351;SDS011;59159;51.652;4.864;2023-03-01T03:50:11;4.77;;;1.50;;
71351;SDS011;59159;51.652;4.864;2023-03-01T03:52:37;5.15;;;1.55;;
71351;SDS011;59159;51.652;4.864;2023-03-01T03:55:04;5.43;;;1.98;;
71351;SDS011;59159;51.652;4.864;2023-03-01T03:57:39;5.40;;;1.33;;
71351;SDS011;59159;51.652;4.864;2023-03-01T04:00:07;4.40;;;1.60;;
71351;SDS011;59159;51.652;4.864;2023-03-01T04:02:42;4.72;;;1.50;;
71351;SDS011;59159;51.652;4.864;2023-03-01T04:05:10;4.53;;;1.58;;
71351;SDS011;59159;51.652;4.864;2023-03-01T04:07:36;4.73;;;1.70;;
71351;SDS011;59159;51.652;4.864;2023-03-01T04:10:03;5.03;;;1.88;;
71351;SDS011;59159;51.652;4.864;2023-03-01T04:12:29;4.82;;;1.48;;
71351;SDS011;59159;51.652;4.864;2023-03-01T04:14:55;4.57;;;1.50;;
71351;SDS011;59159;51.652;4.864;2023-03-01T04:17:21;4.95;;;1.50;;
71351;SDS011;59159;51.652;4.864;2023-03-01T04:19:47;5.68;;;1.60;;
71351;SDS011;59159;51.652;4.864;2023-03-01T04:22:14;4.83;;;1.40;;
71351;SDS011;59159;51.652;4.864;2023-03-01T04:24:42;4.63;;;1.50;;
71351;SDS011;59159;51.652;4.864;2023-03-01T04:27:10;4.75;;;1.30;;
71351;SDS011;59159;51.652;4.864;2023-03-01T04:29:36;4.93;;;1.63;;
71351;SDS011;59159;51.652;4.864;2023-03-01T04:32:02;5.30;;;2.10;;
71351;SDS011;59159;51.652;4.864;2023-03-01T04:34:28;6.10;;;1.88;;
71351;SDS011;59159;51.652;4.864;2023-03-01T04:36:54;4.93;;;1.98;;
71351;SDS011;59159;51.652;4.864;2023-03-01T04:39:20;4.70;;;1.60;;
71351;SDS011;59159;51.652;4.864;2023-03-01T04:41:46;4.40;;;1.55;;
71351;SDS011;59159;51.652;4.864;2023-03-01T04:44:12;5.22;;;1.92;;
71351;SDS011;59159;51.652;4.864;2023-03-01T04:46:38;4.77;;;1.77;;
71351;SDS011;59159;51.652;4.864;2023-03-01T04:49:04;4.60;;;1.60;;
71351;SDS011;59159;51.652;4.864;2023-03-01T04:51:30;4.57;;;1.40;;
71351;SDS011;59159;51.652;4.864;2023-03-01T04:53:59;6.45;;;1.90;;
71351;SDS011;59159;51.652;4.864;2023-03-01T04:56:25;5.20;;;1.53;;
71351;SDS011;59159;51.652;4.864;2023-03-01T04:58:53;5.55;;;1.77;;
71351;SDS011;59159;51.652;4.864;2023-03-01T05:01:20;5.78;;;1.48;;
71351;SDS011;59159;51.652;4.864;2023-03-01T05:03:47;5.13;;;1.73;;
71351;SDS011;59159;51.652;4.864;2023-03-01T05:06:13;5.65;;;1.80;;
71351;SDS011;59159;51.652;4.864;2023-03-01T05:08:40;6.20;;;2.08;;
71351;SDS011;59159;51.652;4.864;2023-03-01T05:11:07;4.80;;;1.43;;
71351;SDS011;59159;51.652;4.864;2023-03-01T05:13:34;4.97;;;1.55;;
71351;SDS011;59159;51.652;4.864;2023-03-01T05:16:01;5.65;;;1.85;;
71351;SDS011;59159;51.652;4.864;2023-03-01T05:18:28;5.25;;;1.80;;
71351;SDS011;59159;51.652;4.864;2023-03-01T05:20:55;5.33;;;1.77;;
71351;SDS011;59159;51.652;4.864;2023-03-01T05:23:23;5.70;;;1.90;;
71351;SDS011;59159;51.652;4.864;2023-03-01T05:25:49;4.45;;;1.50;;
71351;SDS011;59159;51.652;4.864;2023-03-01T05:28:17;5.23;;;1.50;;
71351;SDS011;59159;51.652;4.864;2023-03-01T05:30:44;4.82;;;1.67;;
71351;SDS011;59159;51.652;4.864;2023-03-01T05:33:10;5.20;;;1.90;;
71351;SDS011;59159;51.652;4.864;2023-03-01T05:35:40;4.30;;;1.60;;
71351;SDS011;59159;51.652;4.864;2023-03-01T05:38:07;4.45;;;1.45;;
71351;SDS011;59159;51.652;4.864;2023-03-01T05:40:33;7.00;;;1.92;;
71351;SDS011;59159;51.652;4.864;2023-03-01T05:42:59;5.18;;;1.75;;
71351;SDS011;59159;51.652;4.864;2023-03-01T05:45:26;4.40;;;1.57;;
71351;SDS011;59159;51.652;4.864;2023-03-01T05:47:52;4.68;;;1.60;;
71351;SDS011;59159;51.652;4.864;2023-03-01T05:50:21;5.40;;;1.77;;
71351;SDS011;59159;51.652;4.864;2023-03-01T05:52:48;4.97;;;1.57;;
71351;SDS011;59159;51.652;4.864;2023-03-01T05:55:15;5.25;;;1.80;;
71351;SDS011;59159;51.652;4.864;2023-03-01T05:57:42;5.72;;;1.85;;
71351;SDS011;59159;51.652;4.864;2023-03-01T06:00:08;5.00;;;1.67;;
71351;SDS011;59159;51.652;4.864;2023-03-01T06:02:34;5.30;;;1.60;;
71351;SDS011;59159;51.652;4.864;2023-03-01T06:05:00;5.45;;;2.03;;
71351;SDS011;59159;51.652;4.864;2023-03-01T06:07:27;4.50;;;1.55;;
71351;SDS011;59159;51.652;4.864;2023-03-01T06:09:53;5.97;;;1.70;;
71351;SDS011;59159;51.652;4.864;2023-03-01T06:12:19;5.20;;;1.70;;
71351;SDS011;59159;51.652;4.864;2023-03-01T06:14:46;6.00;;;1.65;;
71351;SDS011;59159;51.652;4.864;2023-03-01T06:17:15;6.30;;;1.73;;
71351;SDS011;59159;51.652;4.864;2023-03-01T06:19:41;8.63;;;2.03;;
71351;SDS011;59159;51.652;4.864;2023-03-01T06:22:07;5.72;;;1.70;;
71351;SDS011;59159;51.652;4.864;2023-03-01T06:24:33;5.23;;;1.57;;
71351;SDS011;59159;51.652;4.864;2023-03-01T06:26:59;6.18;;;1.52;;
71351;SDS011;59159;51.652;4.864;2023-03-01T06:29:25;4.90;;;1.52;;
71351;SDS011;59159;51.652;4.864;2023-03-01T06:31:51;5.93;;;1.80;;
71351;SDS011;59159;51.652;4.864;2023-03-01T06:34:17;4.87;;;1.50;;
71351;SDS011;59159;51.652;4.864;2023-03-01T06:36:44;4.32;;;1.40;;
71351;SDS011;59159;51.652;4.864;2023-03-01T06:39:09;5.63;;;1.90;;
71351;SDS011;59159;51.652;4.864;2023-03-01T06:41:35;6.13;;;1.70;;
71351;SDS011;59159;51.652;4.864;2023-03-01T06:44:01;5.70;;;1.80;;
71351;SDS011;59159;51.652;4.864;2023-03-01T06:46:27;4.85;;;1.60;;
71351;SDS011;59159;51.652;4.864;2023-03-01T06:48:55;4.73;;;1.67;;
71351;SDS011;59159;51.652;4.864;2023-03-01T06:51:21;5.28;;;1.73;;
71351;SDS011;59159;51.652;4.864;2023-03-01T06:53:47;5.97;;;1.90;;
71351;SDS011;59159;51.652;4.864;2023-03-01T06:56:13;5.13;;;1.60;;
71351;SDS011;59159;51.652;4.864;2023-03-01T06:58:39;5.60;;;1.80;;
71351;SDS011;59159;51.652;4.864;2023-03-01T07:01:08;5.57;;;2.08;;
71351;SDS011;59159;51.652;4.864;2023-03-01T07:03:34;4.97;;;1.67;;
71351;SDS011;59159;51.652;4.864;2023-03-01T07:06:00;6.60;;;1.97;;
71351;SDS011;59159;51.652;4.864;2023-03-01T07:08:26;5.78;;;1.88;;
71351;SDS011;59159;51.652;4.864;2023-03-01T07:10:56;7.35;;;1.88;;
71351;SDS011;59159;51.652;4.864;2023-03-01T07:13:22;4.97;;;1.80;;
71351;SDS011;59159;51.652;4.864;2023-03-01T07:15:48;5.10;;;1.50;;
71351;SDS011;59159;51.652;4.864;2023-03-01T07:18:14;5.32;;;1.75;;
71351;SDS011;59159;51.652;4.864;2023-03-01T07:20:40;5.00;;;1.70;;
71351;SDS011;59159;51.652;4.864;2023-03-01T07:23:06;5.27;;;1.60;;
71351;SDS011;59159;51.652;4.864;2023-03-01T07:25:32;4.60;;;1.40;;
71351;SDS011;59159;51.652;4.864;2023-03-01T07:27:58;5.60;;;1.70;;
71351;SDS011;59159;51.652;4.864;2023-03-01T07:30:24;4.90;;;1.60;;
71351;SDS011;59159;51.652;4.864;2023-03-01T07:32:53;5.13;;;1.33;;
71351;SDS011;59159;51.652;4.864;2023-03-01T07:35:19;5.93;;;1.80;;
71351;SDS011;59159;51.652;4.864;2023-03-01T07:37:45;5.77;;;1.90;;
71351;SDS011;59159;51.652;4.864;2023-03-01T07:40:11;5.00;;;1.67;;
71351;SDS011;59159;51.652;4.864;2023-03-01T07:42:37;4.65;;;1.60;;
71351;SDS011;59159;51.652;4.864;2023-03-01T07:45:04;5.53;;;1.73;;
71351;SDS011;59159;51.652;4.864;2023-03-01T07:47:30;5.67;;;1.70;;
71351;SDS011;59159;51.652;4.864;2023-03-01T07:49:56;5.03;;;1.60;;
71351;SDS011;59159;51.652;4.864;2023-03-01T07:52:22;5.47;;;1.75;;
71351;SDS011;59159;51.652;4.864;2023-03-01T07:54:48;5.17;;;1.60;;
71351;SDS011;59159;51.652;4.864;2023-03-01T07:57:14;5.07;;;1.60;;
71351;SDS011;59159;51.652;4.864;2023-03-01T07:59:40;5.28;;;1.70;;
71351;SDS011;59159;51.652;4.864;2023-03-01T08:02:07;4.60;;;1.30;;
71351;SDS011;59159;51.652;4.864;2023-03-01T08:04:33;4.80;;;1.40;;
71351;SDS011;59159;51.652;4.864;2023-03-01T08:06:59;5.22;;;1.52;;
71351;SDS011;59159;51.652;4.864;2023-03-01T08:09:25;4.40;;;1.40;;
71351;SDS011;59159;51.652;4.864;2023-03-01T08:11:51;5.30;;;1.50;;
71351;SDS011;59159;51.652;4.864;2023-03-01T08:14:19;4.80;;;1.45;;
71351;SDS011;59159;51.652;4.864;2023-03-01T08:16:45;5.45;;;1.42;;
71351;SDS011;59159;51.652;4.864;2023-03-01T08:19:11;4.37;;;1.40;;
71351;SDS011;59159;51.652;4.864;2023-03-01T08:21:38;4.55;;;1.60;;
71351;SDS011;59159;51.652;4.864;2023-03-01T08:24:04;5.10;;;1.45;;
71351;SDS011;59159;51.652;4.864;2023-03-01T08:26:31;6.60;;;1.70;;
71351;SDS011;59159;51.652;4.864;2023-03-01T08:28:57;5.13;;;1.38;;
71351;SDS011;59159;51.652;4.864;2023-03-01T08:31:26;5.07;;;1.58;;
71351;SDS011;59159;51.652;4.864;2023-03-01T08:33:54;4.95;;;1.40;;
71351;SDS011;59159;51.652;4.864;2023-03-01T08:36:21;4.37;;;1.30;;
71351;SDS011;59159;51.652;4.864;2023-03-01T08:38:47;4.80;;;1.58;;
71351;SDS011;59159;51.652;4.864;2023-03-01T08:41:13;5.95;;;1.60;;
71351;SDS011;59159;51.652;4.864;2023-03-01T08:43:39;4.90;;;1.30;;
71351;SDS011;59159;51.652;4.864;2023-03-01T08:46:05;4.22;;;1.33;;
71351;SDS011;59159;51.652;4.864;2023-03-01T08:48:31;5.32;;;1.73;;
71351;SDS011;59159;51.652;4.864;2023-03-01T08:51:06;4.87;;;1.67;;
71351;SDS011;59159;51.652;4.864;2023-03-01T08:53:32;4.70;;;1.40;;
71351;SDS011;59159;51.652;4.864;2023-03-01T08:55:59;4.75;;;1.65;;
71351;SDS011;59159;51.652;4.864;2023-03-01T08:58:27;6.07;;;1.70;;
71351;SDS011;59159;51.652;4.864;2023-03-01T09:00:53;5.53;;;2.03;;
71351;SDS011;59159;51.652;4.864;2023-03-01T09:03:21;5.10;;;1.55;;
71351;SDS011;59159;51.652;4.864;2023-03-01T09:05:47;4.80;;;1.50;;
71351;SDS011;59159;51.652;4.864;2023-03-01T09:08:15;4.50;;;1.27;;
71351;SDS011;59159;51.652;4.864;2023-03-01T09:10:41;5.60;;;2.17;;
71351;SDS011;59159;51.652;4.864;2023-03-01T09:13:07;5.97;;;1.60;;
71351;SDS011;59159;51.652;4.864;2023-03-01T09:15:33;6.50;;;1.73;;
71351;SDS011;59159;51.652;4.864;2023-03-01T09:17:59;4.53;;;1.40;;
71351;SDS011;59159;51.652;4.864;2023-03-01T09:20:25;5.25;;;1.45;;
71351;SDS011;59159;51.652;4.864;2023-03-01T09:22:51;4.78;;;1.35;;
71351;SDS011;59159;51.652;4.864;2023-03-01T09:25:17;4.37;;;1.43;;
71351;SDS011;59159;51.652;4.864;2023-03-01T09:27:43;4.97;;;1.50;;
71351;SDS011;59159;51.652;4.864;2023-03-01T09:30:09;5.15;;;1.83;;
71351;SDS011;59159;51.652;4.864;2023-03-01T09:32:36;4.90;;;1.40;;
71351;SDS011;59159;51.652;4.864;2023-03-01T09:35:02;4.60;;;1.35;;
71351;SDS011;59159;51.652;4.864;2023-03-01T09:37:31;4.63;;;1.27;;
71351;SDS011;59159;51.652;4.864;2023-03-01T09:39:58;5.03;;;1.40;;
71351;SDS011;59159;51.652;4.864;2023-03-01T09:42:24;5.50;;;1.50;;
71351;SDS011;59159;51.652;4.864;2023-03-01T09:45:06;4.57;;;1.63;;
71351;SDS011;59159;51.652;4.864;2023-03-01T09:47:33;3.90;;;1.30;;
71351;SDS011;59159;51.652;4.864;2023-03-01T09:55:35;4.50;;;1.27;;
71351;SDS011;59159;51.652;4.864;2023-03-01T09:58:14;5.63;;;1.57;;
71351;SDS011;59159;51.652;4.864;2023-03-01T10:00:50;4.50;;;1.40;;
71351;SDS011;59159;51.652;4.864;2023-03-01T10:03:17;5.10;;;1.30;;
71351;SDS011;59159;51.652;4.864;2023-03-01T10:05:54;3.97;;;1.37;;
71351;SDS011;59159;51.652;4.864;2023-03-01T10:11:24;4.38;;;1.20;;
71351;SDS011;59159;51.652;4.864;2023-03-01T10:14:09;4.13;;;1.13;;
71351;SDS011;59159;51.652;4.864;2023-03-01T10:16:52;5.10;;;1.17;;
71351;SDS011;59159;51.652;4.864;2023-03-01T10:19:24;4.22;;;1.10;;
71351;SDS011;59159;51.652;4.864;2023-03-01T10:21:51;4.25;;;1.20;;
71351;SDS011;59159;51.652;4.864;2023-03-01T10:24:17;4.17;;;1.37;;
71351;SDS011;59159;51.652;4.864;2023-03-01T10:26:55;3.58;;;1.02;;
71351;SDS011;59159;51.652;4.864;2023-03-01T10:29:34;4.97;;;1.20;;
71351;SDS011;59159;51.652;4.864;2023-03-01T10:32:03;3.37;;;0.93;;
71351;SDS011;59159;51.652;4.864;2023-03-01T10:34:32;3.88;;;1.08;;
71351;SDS011;59159;51.652;4.864;2023-03-01T10:37:13;3.95;;;1.10;;
71351;SDS011;59159;51.652;4.864;2023-03-01T10:42:58;5.33;;;1.20;;
71351;SDS011;59159;51.652;4.864;2023-03-01T10:48:05;3.67;;;1.25;;
71351;SDS011;59159;51.652;4.864;2023-03-01T10:50:31;5.17;;;1.10;;
71351;SDS011;59159;51.652;4.864;2023-03-01T10:52:59;3.67;;;1.20;;
71351;SDS011;59159;51.652;4.864;2023-03-01T11:03:13;3.25;;;0.80;;
71351;SDS011;59159;51.652;4.864;2023-03-01T11:06:24;4.25;;;1.30;;
71351;SDS011;59159;51.652;4.864;2023-03-01T11:08:32;3.70;;;0.93;;
71351;SDS011;59159;51.652;4.864;2023-03-01T11:11:33;4.15;;;1.00;;
71351;SDS011;59159;51.652;4.864;2023-03-01T11:13:52;4.75;;;1.00;;
71351;SDS011;59159;51.652;4.864;2023-03-01T11:16:23;4.40;;;1.27;;
71351;SDS011;59159;51.652;4.864;2023-03-01T11:18:59;4.28;;;1.02;;
71351;SDS011;59159;51.652;4.864;2023-03-01T11:21:25;3.92;;;1.27;;
71351;SDS011;59159;51.652;4.864;2023-03-01T11:23:52;4.63;;;0.97;;
71351;SDS011;59159;51.652;4.864;2023-03-01T11:26:18;3.63;;;0.98;;
71351;SDS011;59159;51.652;4.864;2023-03-01T11:28:46;4.60;;;1.10;;
71351;SDS011;59159;51.652;4.864;2023-03-01T11:31:15;4.43;;;1.10;;
71351;SDS011;59159;51.652;4.864;2023-03-01T11:33:49;3.63;;;1.00;;
71351;SDS011;59159;51.652;4.864;2023-03-01T11:36:26;3.65;;;1.10;;
71351;SDS011;59159;51.652;4.864;2023-03-01T11:38:54;4.20;;;1.10;;
71351;SDS011;59159;51.652;4.864;2023-03-01T11:41:21;3.47;;;1.00;;
71351;SDS011;59159;51.652;4.864;2023-03-01T11:43:59;4.90;;;1.30;;
71351;SDS011;59159;51.652;4.864;2023-03-01T11:49:22;3.90;;;1.10;;
71351;SDS011;59159;51.652;4.864;2023-03-01T11:56:55;3.03;;;0.80;;
71351;SDS011;59159;51.652;4.864;2023-03-01T12:02:21;3.85;;;1.08;;
71351;SDS011;59159;51.652;4.864;2023-03-01T12:04:53;4.28;;;1.20;;
71351;SDS011;59159;51.652;4.864;2023-03-01T12:10:22;3.55;;;1.10;;
71351;SDS011;59159;51.652;4.864;2023-03-01T12:15:33;3.50;;;0.87;;
71351;SDS011;59159;51.652;4.864;2023-03-01T12:28:04;5.15;;;0.95;;
71351;SDS011;59159;51.652;4.864;2023-03-01T12:33:22;3.70;;;1.00;;
71351;SDS011;59159;51.652;4.864;2023-03-01T12:38:32;4.90;;;0.85;;
71351;SDS011;59159;51.652;4.864;2023-03-01T12:44:15;5.00;;;0.93;;
71351;SDS011;59159;51.652;4.864;2023-03-01T12:49:20;3.30;;;0.90;;
71351;SDS011;59159;51.652;4.864;2023-03-01T12:51:51;5.07;;;0.90;;
71351;SDS011;59159;51.652;4.864;2023-03-01T12:54:22;4.15;;;0.90;;
71351;SDS011;59159;51.652;4.864;2023-03-01T12:56:48;4.40;;;1.15;;
71351;SDS011;59159;51.652;4.864;2023-03-01T13:04:16;3.95;;;0.85;;
71351;SDS011;59159;51.652;4.864;2023-03-01T13:11:55;4.05;;;1.10;;
71351;SDS011;59159;51.652;4.864;2023-03-01T13:16:53;3.67;;;0.97;;
71351;SDS011;59159;51.652;4.864;2023-03-01T13:19:20;4.10;;;1.35;;
71351;SDS011;59159;51.652;4.864;2023-03-01T13:21:47;3.97;;;1.13;;
71351;SDS011;59159;51.652;4.864;2023-03-01T13:29:44;4.30;;;1.17;;
71351;SDS011;59159;51.652;4.864;2023-03-01T13:34:52;4.22;;;0.98;;
71351;SDS011;59159;51.652;4.864;2023-03-01T13:37:20;4.43;;;1.05;;
71351;SDS011;59159;51.652;4.864;2023-03-01T13:39:46;4.90;;;1.20;;
71351;SDS011;59159;51.652;4.864;2023-03-01T13:42:32;3.73;;;1.20;;
71351;SDS011;59159;51.652;4.864;2023-03-01T13:44:59;4.05;;;0.80;;
71351;SDS011;59159;51.652;4.864;2023-03-01T13:47:26;5.05;;;0.95;;
71351;SDS011;59159;51.652;4.864;2023-03-01T13:49:56;3.27;;;0.90;;
71351;SDS011;59159;51.652;4.864;2023-03-01T13:54:52;4.07;;;1.00;;
71351;SDS011;59159;51.652;4.864;2023-03-01T13:57:20;3.17;;;0.80;;
71351;SDS011;59159;51.652;4.864;2023-03-01T13:59:47;3.63;;;0.98;;
71351;SDS011;59159;51.652;4.864;2023-03-01T14:02:13;5.00;;;1.02;;
71351;SDS011;59159;51.652;4.864;2023-03-01T14:04:39;3.70;;;0.88;;
71351;SDS011;59159;51.652;4.864;2023-03-01T14:07:12;3.73;;;0.93;;
71351;SDS011;59159;51.652;4.864;2023-03-01T14:09:42;4.57;;;1.20;;
71351;SDS011;59159;51.652;4.864;2023-03-01T14:17:41;4.50;;;0.95;;
71351;SDS011;59159;51.652;4.864;2023-03-01T14:20:17;4.40;;;1.30;;
71351;SDS011;59159;51.652;4.864;2023-03-01T14:22:44;5.03;;;1.23;;
71351;SDS011;59159;51.652;4.864;2023-03-01T14:27:42;4.90;;;1.73;;
71351;SDS011;59159;51.652;4.864;2023-03-01T14:30:22;5.18;;;1.30;;
71351;SDS011;59159;51.652;4.864;2023-03-01T14:32:53;3.63;;;1.03;;
71351;SDS011;59159;51.652;4.864;2023-03-01T14:35:24;4.18;;;1.20;;
71351;SDS011;59159;51.652;4.864;2023-03-01T14:37:50;4.13;;;1.20;;
71351;SDS011;59159;51.652;4.864;2023-03-01T14:40:36;3.90;;;1.00;;
71351;SDS011;59159;51.652;4.864;2023-03-01T14:43:08;4.43;;;0.88;;
71351;SDS011;59159;51.652;4.864;2023-03-01T14:45:35;4.53;;;1.35;;
71351;SDS011;59159;51.652;4.864;2023-03-01T14:48:02;3.57;;;1.07;;
71351;SDS011;59159;51.652;4.864;2023-03-01T14:50:32;4.72;;;1.10;;
71351;SDS011;59159;51.652;4.864;2023-03-01T14:53:00;4.22;;;1.10;;
71351;SDS011;59159;51.652;4.864;2023-03-01T14:57:53;5.03;;;0.90;;
71351;SDS011;59159;51.652;4.864;2023-03-01T15:00:22;3.95;;;1.00;;
71351;SDS011;59159;51.652;4.864;2023-03-01T15:02:50;3.70;;;1.10;;
71351;SDS011;59159;51.652;4.864;2023-03-01T15:05:17;4.27;;;1.10;;
71351;SDS011;59159;51.652;4.864;2023-03-01T15:07:44;3.17;;;0.95;;
71351;SDS011;59159;51.652;4.864;2023-03-01T15:10:27;3.83;;;1.13;;
71351;SDS011;59159;51.652;4.864;2023-03-01T15:12:53;3.53;;;1.00;;
71351;SDS011;59159;51.652;4.864;2023-03-01T15:17:48;4.35;;;1.10;;
71351;SDS011;59159;51.652;4.864;2023-03-01T15:20:17;4.97;;;1.35;;
71351;SDS011;59159;51.652;4.864;2023-03-01T15:22:46;3.87;;;0.83;;
71351;SDS011;59159;51.652;4.864;2023-03-01T15:25:16;3.55;;;1.00;;
71351;SDS011;59159;51.652;4.864;2023-03-01T15:27:46;3.22;;;1.00;;
71351;SDS011;59159;51.652;4.864;2023-03-01T15:32:44;4.47;;;1.13;;
71351;SDS011;59159;51.652;4.864;2023-03-01T15:37:55;3.87;;;1.17;;
71351;SDS011;59159;51.652;4.864;2023-03-01T15:40:26;3.25;;;0.82;;
71351;SDS011;59159;51.652;4.864;2023-03-01T15:43:06;3.85;;;1.10;;
71351;SDS011;59159;51.652;4.864;2023-03-01T15:45:32;3.13;;;0.90;;
71351;SDS011;59159;51.652;4.864;2023-03-01T15:48:05;4.40;;;1.13;;
71351;SDS011;59159;51.652;4.864;2023-03-01T15:50:40;3.47;;;0.90;;
71351;SDS011;59159;51.652;4.864;2023-03-01T15:53:10;3.47;;;0.80;;
71351;SDS011;59159;51.652;4.864;2023-03-01T15:55:37;3.90;;;1.07;;
71351;SDS011;59159;51.652;4.864;2023-03-01T15:58:04;3.75;;;1.00;;
71351;SDS011;59159;51.652;4.864;2023-03-01T16:00:32;3.97;;;1.02;;
71351;SDS011;59159;51.652;4.864;2023-03-01T16:02:58;2.67;;;0.70;;
71351;SDS011;59159;51.652;4.864;2023-03-01T16:05:25;3.30;;;0.85;;
71351;SDS011;59159;51.652;4.864;2023-03-01T16:07:53;3.47;;;0.93;;
71351;SDS011;59159;51.652;4.864;2023-03-01T16:10:19;3.33;;;0.95;;
71351;SDS011;59159;51.652;4.864;2023-03-01T16:12:45;3.77;;;1.07;;
71351;SDS011;59159;51.652;4.864;2023-03-01T16:15:13;4.70;;;0.95;;
71351;SDS011;59159;51.652;4.864;2023-03-01T16:17:41;4.63;;;1.05;;
71351;SDS011;59159;51.652;4.864;2023-03-01T16:20:07;4.40;;;1.10;;
71351;SDS011;59159;51.652;4.864;2023-03-01T16:22:33;4.60;;;1.00;;
71351;SDS011;59159;51.652;4.864;2023-03-01T16:24:59;4.45;;;1.08;;
71351;SDS011;59159;51.652;4.864;2023-03-01T16:27:27;4.00;;;1.00;;
71351;SDS011;59159;51.652;4.864;2023-03-01T16:29:53;3.15;;;0.98;;
71351;SDS011;59159;51.652;4.864;2023-03-01T16:32:19;4.03;;;0.93;;
71351;SDS011;59159;51.652;4.864;2023-03-01T16:34:45;3.78;;;1.10;;
71351;SDS011;59159;51.652;4.864;2023-03-01T16:37:14;4.80;;;1.00;;
71351;SDS011;59159;51.652;4.864;2023-03-01T16:39:40;3.40;;;1.15;;
71351;SDS011;59159;51.652;4.864;2023-03-01T16:42:06;3.20;;;1.00;;
71351;SDS011;59159;51.652;4.864;2023-03-01T16:44:32;3.60;;;1.07;;